Time;durP1;ratioP1;P1;durP2;ratioP2;P2;SDS_P1;SDS_P2;PMS_P1;PMS_P2;Temp;Humidity;BMP_temperature;BMP_pressure;BME280_temperature;BME280_humidity;BME280_pressure;Samples;Min_cycle;Max_cycle;Signal;HPM_P1;HPM_P2
2022/01/15 00:02:01;;;;;;;3.70;1.85;;;;;;;1.50;69.07;98694.02;1771813;80;21827;-63
2022/01/15 00:05:09;;;;;;;3.98;1.82;;;;;;;1.47;69.17;98687.08;1771891;80;21374;-63
2022/01/15 00:08:14;;;;;;;5.72;2.25;;;;;;;1.44;69.18;98702.76;1771725;80;21260;-63
2022/01/15 00:11:21;;;;;;;3.47;1.72;;;;;;;1.41;69.19;98693.64;1772123;80;21224;-61
2022/01/15 00:14:33;;;;;;;3.87;1.45;;;;;;;1.39;69.25;98685.72;1771986;80;21745;-61
2022/01/15 00:20:56;;;;;;;4.55;2.15;;;;;;;1.44;69.25;98710.32;1771746;81;21714;-61
2022/01/15 00:24:04;;;;;;;4.17;1.82;;;;;;;1.46;68.88;98697.53;1770811;80;21284;-61
2022/01/15 00:27:11;;;;;;;3.58;1.60;;;;;;;1.51;68.39;98707.34;1768596;80;21228;-62
2022/01/15 00:30:18;;;;;;;3.50;2.17;;;;;;;1.53;68.40;98712.08;1767734;81;21245;-62
2022/01/15 00:33:24;;;;;;;3.72;1.92;;;;;;;1.53;68.43;98728.26;1765406;81;21422;-61
2022/01/15 00:36:30;;;;;;;2.60;1.50;;;;;;;1.55;68.30;98749.66;1730049;81;21205;-62
2022/01/15 00:39:35;;;;;;;2.60;1.90;;;;;;;1.62;68.04;98729.66;1760533;81;21220;-62
2022/01/15 00:42:42;;;;;;;5.85;2.15;;;;;;;1.66;67.96;98746.70;1760166;81;21194;-62
2022/01/15 00:45:49;;;;;;;3.27;1.80;;;;;;;1.70;67.81;98735.91;1760193;81;21324;-61
2022/01/15 00:48:55;;;;;;;3.10;1.65;;;;;;;1.77;67.64;98737.47;1760488;81;21233;-61
2022/01/15 00:52:00;;;;;;;4.05;1.42;;;;;;;1.80;67.50;98762.77;1742203;81;21402;-61
2022/01/15 00:55:06;;;;;;;3.55;1.67;;;;;;;1.82;67.30;98761.63;1759882;81;21963;-62
2022/01/15 00:58:12;;;;;;;6.53;2.35;;;;;;;1.83;67.25;98748.95;1760367;81;21201;-61
2022/01/15 01:01:17;;;;;;;4.22;1.87;;;;;;;1.84;67.26;98743.92;1760675;81;21367;-61
2022/01/15 01:04:23;;;;;;;3.87;1.70;;;;;;;1.86;67.03;98754.88;1761060;81;21480;-61
2022/01/15 01:07:28;;;;;;;3.20;2.10;;;;;;;1.86;67.03;98752.19;1740143;81;21366;-60
2022/01/15 01:23:43;;;;;;;5.08;1.80;;;;;;;1.77;66.96;98765.79;1689370;83;20311;-62
2022/01/15 01:26:56;;;;;;;3.65;1.70;;;;;;;1.74;67.00;98770.16;1742121;80;21768;-62
2022/01/15 01:30:17;;;;;;;3.80;1.82;;;;;;;1.73;66.97;98776.57;1770020;79;21414;-61
2022/01/15 01:40:05;;;;;;;3.90;2.05;;;;;;;1.63;67.40;98779.87;1772569;81;21243;-60
2022/01/15 01:43:06;;;;;;;6.45;1.90;;;;;;;1.59;67.53;98787.94;1772480;81;21671;-60
2022/01/15 01:46:16;;;;;;;4.72;1.90;;;;;;;1.54;67.74;98785.20;1766108;78;21192;-59
2022/01/15 01:49:20;;;;;;;4.05;2.02;;;;;;;1.54;67.85;98794.64;1766709;81;21858;-61
2022/01/15 01:52:26;;;;;;;2.77;1.77;;;;;;;1.56;68.35;98806.61;1749241;81;21206;-61
2022/01/15 01:55:34;;;;;;;10.35;2.62;;;;;;;1.59;68.77;98805.47;1766689;81;21710;-60
2022/01/15 01:58:39;;;;;;;4.75;2.20;;;;;;;1.64;69.09;98819.30;1767270;81;21941;-61
2022/01/15 02:01:46;;;;;;;7.87;1.82;;;;;;;1.64;69.50;98847.61;1767287;81;21333;-60
2022/01/15 02:04:52;;;;;;;5.33;2.05;;;;;;;1.63;70.16;98826.56;1767684;81;21211;-61
2022/01/15 02:07:58;;;;;;;6.95;1.90;;;;;;;1.61;70.61;98823.17;1767766;81;21775;-61
2022/01/15 02:11:08;;;;;;;6.47;1.70;;;;;;;1.57;71.07;98831.73;1752331;81;21235;-61
2022/01/15 02:14:13;;;;;;;4.30;1.82;;;;;;;1.52;71.53;98841.13;1741465;82;21713;-60
2022/01/15 02:17:22;;;;;;;2.65;1.50;;;;;;;1.46;71.91;98839.55;1741440;82;21191;-61
2022/01/15 02:23:43;;;;;;;3.12;1.42;;;;;;;1.40;72.02;98846.43;1741773;82;21208;-61
2022/01/15 02:26:46;;;;;;;2.12;1.60;;;;;;;1.39;72.16;98850.63;1741756;82;21307;-62
2022/01/15 02:29:54;;;;;;;2.60;1.27;;;;;;;1.38;72.05;98852.47;1737597;81;21212;-61
2022/01/15 02:32:59;;;;;;;2.92;1.40;;;;;;;1.36;72.26;98888.16;1730114;82;21215;-59
2022/01/15 02:36:06;;;;;;;1.00;0.90;;;;;;;1.33;72.56;98849.39;1737266;82;21354;-61
2022/01/15 02:39:13;;;;;;;2.70;1.30;;;;;;;1.32;72.82;98853.09;1737775;82;21351;-59
2022/01/15 02:42:18;;;;;;;2.83;1.35;;;;;;;1.36;72.77;98880.59;1737416;82;21334;-60
2022/01/15 02:45:29;;;;;;;3.95;1.60;;;;;;;1.42;72.56;98879.48;1721404;83;21312;-61
2022/01/15 02:48:36;;;;;;;3.17;1.47;;;;;;;1.44;72.53;98869.36;1734334;82;21362;-60
2022/01/15 02:51:43;;;;;;;2.10;1.00;;;;;;;1.47;72.75;98901.40;1727442;82;21885;-60
2022/01/15 02:54:52;;;;;;;3.27;1.70;;;;;;;1.48;73.10;98916.59;1727320;82;21362;-60
2022/01/15 02:57:57;;;;;;;2.08;1.12;;;;;;;1.48;73.57;98900.91;1727754;82;21768;-61
2022/01/15 03:01:02;;;;;;;2.83;1.50;;;;;;;1.47;73.87;98929.70;1727321;83;21343;-61
2022/01/15 03:04:08;;;;;;;2.90;1.10;;;;;;;1.47;74.25;98901.40;1727238;83;21277;-60
2022/01/15 03:07:13;;;;;;;1.90;1.10;;;;;;;1.44;74.74;98921.93;1727204;83;21335;-60
2022/01/15 03:10:19;;;;;;;3.27;1.50;;;;;;;1.39;75.19;98913.98;1730162;82;21264;-60
2022/01/15 03:13:25;;;;;;;5.12;2.25;;;;;;;1.32;75.40;98915.58;1694651;82;21545;-60
2022/01/15 03:16:33;;;;;;;2.67;1.10;;;;;;;1.23;75.41;98942.11;1727273;83;21182;-60
2022/01/15 03:19:39;;;;;;;2.87;1.47;;;;;;;1.13;75.45;98926.00;1721496;82;21359;-61
2022/01/15 03:22:47;;;;;;;3.92;1.37;;;;;;;1.03;75.90;98909.05;1738227;81;21359;-61
2022/01/15 03:25:52;;;;;;;4.58;1.15;;;;;;;0.95;76.32;98930.50;1737965;81;21208;-60
2022/01/15 03:28:59;;;;;;;4.80;1.40;;;;;;;0.91;76.78;98931.82;1735058;82;21386;-59
2022/01/15 03:32:09;;;;;;;1.62;1.45;;;;;;;0.90;77.09;98934.17;1737523;82;21386;-60
2022/01/15 03:35:17;;;;;;;3.77;1.40;;;;;;;0.92;77.04;98956.40;1733801;82;21292;-60
2022/01/15 03:38:26;;;;;;;5.15;1.55;;;;;;;0.99;76.98;98954.81;1727400;82;21212;-60
2022/01/15 03:41:32;;;;;;;3.95;1.80;;;;;;;1.01;77.56;98954.17;1727829;82;21414;-60
2022/01/15 03:44:42;;;;;;;2.58;1.02;;;;;;;0.94;78.21;98981.83;1727120;82;21366;-59
2022/01/15 03:47:49;;;;;;;3.10;1.60;;;;;;;0.88;78.26;98996.77;1727944;82;21386;-61
2022/01/15 03:50:54;;;;;;;2.65;1.47;;;;;;;0.87;78.34;98982.92;1726963;82;21343;-60
2022/01/15 03:53:59;;;;;;;2.50;1.42;;;;;;;0.86;78.44;98974.51;1727314;82;21422;-60
2022/01/15 03:56:59;;;;;;;1.65;1.00;;;;;;;0.86;78.51;98973.66;1727080;82;21213;-60
2022/01/15 03:59:52;;;;;;;1.00;0.95;;;;;;;0.78;78.58;98973.06;1727869;82;21229;-60
2022/01/15 04:03:03;;;;;;;;;;;;;;;0.71;78.73;98985.44;1730319;82;21370;-60
2022/01/15 04:06:08;;;;;;;2.17;1.05;;;;;;;0.68;78.89;98987.05;1727104;82;20278;-59
2022/01/15 04:09:14;;;;;;;2.87;1.02;;;;;;;0.68;79.10;98987.58;1727343;82;21759;-59
2022/01/15 04:12:19;;;;;;;2.55;1.17;;;;;;;0.68;79.28;98995.13;1727031;82;21346;-59
2022/01/15 04:15:25;;;;;;;1.27;1.12;;;;;;;0.67;79.41;98991.23;1726688;82;21205;-59
2022/01/15 04:18:36;;;;;;;7.37;2.90;;;;;;;0.65;79.51;98995.95;1727243;82;21742;-59
2022/01/15 04:21:38;;;;;;;2.45;1.10;;;;;;;0.65;79.55;98991.39;1727784;82;21189;-60
2022/01/15 04:24:47;;;;;;;3.33;2.22;;;;;;;0.71;79.35;98992.66;1727269;82;21221;-59
2022/01/15 04:28:01;;;;;;;4.78;2.92;;;;;;;0.78;78.94;99025.57;1727687;82;21879;-59
2022/01/15 04:31:08;;;;;;;2.95;1.20;;;;;;;0.85;78.26;99019.95;1728044;82;21392;-59
2022/01/15 04:34:15;;;;;;;4.03;1.98;;;;;;;0.91;77.43;99017.16;1694551;83;21433;-59
2022/01/15 04:37:32;;;;;;;3.98;1.70;;;;;;;0.94;76.97;99021.75;1737717;82;21343;-59
2022/01/15 04:40:33;;;;;;;1.67;1.30;;;;;;;0.98;76.41;99040.64;1737646;82;21358;-61
2022/01/15 04:43:37;;;;;;;2.87;1.42;;;;;;;0.97;75.92;99043.00;1737696;82;21369;-61
2022/01/15 04:46:46;;;;;;;3.22;1.80;;;;;;;0.95;75.60;99039.59;1737791;82;21383;-60
2022/01/15 04:49:55;;;;;;;3.35;1.70;;;;;;;0.92;75.50;99054.71;1737694;82;21366;-59
2022/01/15 04:53:04;;;;;;;4.17;1.82;;;;;;;0.90;75.50;99056.73;1737636;82;21370;-60
2022/01/15 04:56:09;;;;;;;5.65;2.90;;;;;;;0.90;75.38;99068.84;1737637;82;21949;-59
2022/01/15 04:59:17;;;;;;;5.47;2.75;;;;;;;0.89;75.30;99077.05;1737623;82;21766;-60
2022/01/15 05:02:23;;;;;;;6.53;1.70;;;;;;;0.91;75.24;99073.72;1737792;82;21948;-61
2022/01/15 05:05:28;;;;;;;5.20;2.20;;;;;;;0.93;75.11;99073.08;1737656;82;21350;-60
2022/01/15 05:08:35;;;;;;;5.45;2.50;;;;;;;0.94;75.04;99093.13;1737768;82;21425;-59
2022/01/15 05:12:04;;;;;;;5.42;2.05;;;;;;;0.90;75.07;99089.05;1737733;82;21347;-60
2022/01/15 05:14:52;;;;;;;3.87;2.12;;;;;;;0.84;75.45;99088.78;1737580;82;21306;-61
2022/01/15 05:18:00;;;;;;;12.13;4.22;;;;;;;0.77;75.92;99135.64;1737700;82;21342;-60
2022/01/15 05:21:06;;;;;;;5.58;2.30;;;;;;;0.73;76.53;99111.33;1722781;82;21421;-60
2022/01/15 05:24:12;;;;;;;6.47;2.60;;;;;;;0.70;76.97;99106.23;1737755;82;21379;-61
2022/01/15 05:27:21;;;;;;;4.95;2.80;;;;;;;0.69;77.35;99134.17;1737862;82;21318;-59
2022/01/15 05:30:30;;;;;;;3.33;2.50;;;;;;;0.69;77.79;99096.47;1737736;82;21362;-60
2022/01/15 05:33:34;;;;;;;4.60;2.15;;;;;;;0.70;78.12;99102.72;1737819;82;21363;-60
2022/01/15 05:36:42;;;;;;;3.37;2.02;;;;;;;0.71;78.36;99114.69;1737798;81;21240;-60
2022/01/15 05:39:56;;;;;;;4.47;1.87;;;;;;;0.75;78.44;99132.23;1737307;82;21322;-60
2022/01/15 05:43:06;;;;;;;7.45;2.12;;;;;;;0.79;78.38;99122.89;1731117;82;21382;-60
2022/01/15 05:46:11;;;;;;;4.22;1.80;;;;;;;0.83;78.21;99122.94;1737626;82;21894;-60
2022/01/15 05:49:17;;;;;;;5.22;2.20;;;;;;;0.88;77.90;99139.52;1737572;82;21811;-61
2022/01/15 05:52:21;;;;;;;5.72;2.33;;;;;;;0.91;77.59;99154.03;1747429;81;21197;-58
2022/01/15 05:55:30;;;;;;;6.47;3.02;;;;;;;0.95;77.28;99160.81;1736602;82;21219;-61
2022/01/15 05:58:36;;;;;;;7.25;3.75;;;;;;;1.01;76.95;99145.44;1709604;83;21366;-59
2022/01/15 06:01:43;;;;;;;16.65;8.38;;;;;;;1.06;76.71;99146.34;1728231;82;21836;-60
2022/01/15 06:04:49;;;;;;;5.45;2.60;;;;;;;1.09;76.53;99157.69;1743335;81;21260;-61
2022/01/15 06:07:55;;;;;;;4.70;1.72;;;;;;;1.13;76.42;99182.47;1756729;81;21382;-61
2022/01/15 06:11:00;;;;;;;7.42;2.67;;;;;;;1.15;76.36;99175.09;1757215;81;21193;-60
2022/01/15 06:14:08;;;;;;;6.72;2.75;;;;;;;1.18;76.43;99187.78;1756789;81;21773;-60
2022/01/15 06:17:16;;;;;;;14.93;5.10;;;;;;;1.20;76.33;99197.07;1756339;81;21209;-60
2022/01/15 06:20:22;;;;;;;5.62;2.15;;;;;;;1.20;76.34;99187.15;1759237;81;21184;-59
2022/01/15 06:23:27;;;;;;;9.38;2.67;;;;;;;1.21;76.47;99183.45;1770377;80;21228;-59
2022/01/15 06:26:32;;;;;;;6.67;2.42;;;;;;;1.25;76.48;99199.66;1773736;81;21212;-59
2022/01/15 06:29:38;;;;;;;11.55;5.35;;;;;;;1.28;76.40;99198.05;1771834;81;21351;-61
2022/01/15 06:32:44;;;;;;;12.90;5.83;;;;;;;1.31;76.27;99199.59;1727640;81;21351;-61
2022/01/15 06:35:49;;;;;;;9.33;3.60;;;;;;;1.34;76.16;99201.50;1742244;82;21195;-61
2022/01/15 06:38:56;;;;;;;10.43;4.47;;;;;;;1.37;75.91;99210.64;1742475;82;21219;-60
2022/01/15 06:42:01;;;;;;;9.48;3.70;;;;;;;1.41;75.65;99222.81;1748036;81;21282;-60
2022/01/15 06:45:07;;;;;;;5.83;3.10;;;;;;;1.46;75.37;99219.19;1773029;81;21750;-60
2022/01/15 06:48:13;;;;;;;11.63;4.37;;;;;;;1.51;75.14;99218.25;1774222;80;21393;-60
2022/01/15 06:51:25;;;;;;;11.63;4.85;;;;;;;1.52;74.74;99232.59;1773381;80;21705;-60
2022/01/15 06:54:31;;;;;;;12.70;5.60;;;;;;;1.52;74.62;99229.38;1773519;80;21220;-60
2022/01/15 06:57:37;;;;;;;9.05;3.77;;;;;;;1.57;74.48;99232.97;1773528;80;21232;-60
2022/01/15 07:00:44;;;;;;;11.30;5.00;;;;;;;1.60;74.13;99243.49;1773862;80;21338;-60
2022/01/15 07:03:52;;;;;;;8.48;4.12;;;;;;;1.61;73.87;99245.66;1749603;81;21358;-61
2022/01/15 07:06:56;;;;;;;11.45;3.58;;;;;;;1.65;73.69;99253.31;1773132;80;21426;-60
2022/01/15 07:10:05;;;;;;;6.92;2.33;;;;;;;1.67;73.62;99241.02;1773171;80;21420;-60
2022/01/15 07:13:11;;;;;;;7.80;3.85;;;;;;;1.68;73.45;99253.05;1773604;80;21439;-62
2022/01/15 07:16:19;;;;;;;7.03;2.52;;;;;;;1.69;73.45;99268.70;1773334;81;21350;-62
2022/01/15 07:19:31;;;;;;;12.75;5.50;;;;;;;1.74;73.43;99261.03;1773305;81;21366;-59
2022/01/15 07:22:36;;;;;;;8.60;3.67;;;;;;;1.76;73.02;99257.69;1773346;81;21704;-60
2022/01/15 07:25:42;;;;;;;11.18;5.00;;;;;;;1.76;72.69;99258.52;1773559;80;21879;-59
2022/01/15 07:28:47;;;;;;;8.75;3.35;;;;;;;1.79;72.42;99283.02;1748801;81;21448;-60
2022/01/15 07:31:54;;;;;;;5.70;2.55;;;;;;;1.83;72.34;99281.22;1742200;82;21222;-60
2022/01/15 07:35:00;;;;;;;5.33;2.55;;;;;;;1.88;71.87;99255.14;1743546;80;21216;-60
2022/01/15 07:38:08;;;;;;;5.85;3.05;;;;;;;1.89;71.50;99275.75;1742765;81;21224;-60
2022/01/15 07:41:14;;;;;;;7.50;3.45;;;;;;;1.87;71.44;99269.64;1742792;82;21207;-60
2022/01/15 07:44:21;;;;;;;8.43;3.60;;;;;;;1.94;71.46;99265.34;1742488;82;21231;-60
2022/01/15 07:47:27;;;;;;;16.82;6.22;;;;;;;2.05;71.27;99286.73;1741939;82;21211;-59
2022/01/15 07:50:33;;;;;;;9.38;4.25;;;;;;;2.10;71.21;99279.04;1742289;82;21200;-59
2022/01/15 07:53:38;;;;;;;7.92;5.05;;;;;;;2.06;71.54;99283.87;1742232;82;21243;-59
2022/01/15 07:56:44;;;;;;;6.08;2.72;;;;;;;2.10;71.66;99284.44;1742271;82;21685;-60
2022/01/15 07:59:50;;;;;;;4.42;2.42;;;;;;;2.14;71.62;99300.18;1741789;82;21243;-60
2022/01/15 08:03:00;;;;;;;6.80;2.90;;;;;;;2.20;71.77;99308.20;1742522;82;21204;-60
2022/01/15 08:06:09;;;;;;;9.18;2.33;;;;;;;2.20;71.63;99303.66;1742366;82;21255;-62
2022/01/15 08:09:17;;;;;;;8.50;3.12;;;;;;;2.21;71.59;99290.98;1742980;81;21235;-60
2022/01/15 08:12:26;;;;;;;3.92;1.62;;;;;;;2.27;71.29;99307.93;1741661;81;21340;-62
2022/01/15 08:15:33;;;;;;;6.05;2.33;;;;;;;2.39;70.79;99299.99;1742191;82;21200;-61
2022/01/15 08:18:40;;;;;;;5.72;2.05;;;;;;;2.53;70.20;99303.05;1742437;82;21203;-60
2022/01/15 08:21:47;;;;;;;4.47;2.00;;;;;;;2.64;69.35;99306.02;1741337;82;21196;-60
2022/01/15 08:24:54;;;;;;;5.00;1.90;;;;;;;2.70;68.77;99320.27;1741157;82;22129;-61
2022/01/15 08:28:17;;;;;;;14.70;4.87;;;;;;;2.74;68.05;99326.55;1740365;82;21196;-60
2022/01/15 08:31:24;;;;;;;7.97;3.45;;;;;;;2.75;67.65;99332.81;1741166;82;21184;-60
2022/01/15 08:34:29;;;;;;;7.62;2.50;;;;;;;2.73;67.88;99313.20;1743542;81;21265;-61
2022/01/15 08:37:41;;;;;;;8.28;2.95;;;;;;;2.74;67.52;99328.43;1767799;81;21216;-61
2022/01/15 08:40:43;;;;;;;4.78;2.92;;;;;;;2.76;67.38;99315.10;1771087;81;21330;-60
2022/01/15 08:43:51;;;;;;;6.20;2.27;;;;;;;2.86;67.33;99320.44;1742292;81;22224;-61
2022/01/15 08:46:58;;;;;;;7.78;2.92;;;;;;;3.01;66.69;99314.34;1742156;82;21216;-62
2022/01/15 08:50:06;;;;;;;5.62;3.10;;;;;;;3.15;66.13;99318.38;1742432;82;21620;-61
2022/01/15 08:53:13;;;;;;;4.37;2.52;;;;;;;3.26;65.32;99333.50;1742074;82;21519;-60
2022/01/15 08:56:18;;;;;;;8.45;2.85;;;;;;;3.25;65.19;99330.45;1742375;82;21267;-60
2022/01/15 08:59:26;;;;;;;8.90;3.17;;;;;;;3.15;65.30;99330.53;1742186;82;21303;-60
2022/01/15 09:02:31;;;;;;;9.25;2.42;;;;;;;3.05;65.83;99344.13;1742007;82;21522;-60
2022/01/15 09:05:40;;;;;;;7.10;2.83;;;;;;;2.97;65.70;99326.97;1741990;82;21712;-60
2022/01/15 09:08:45;;;;;;;9.50;2.40;;;;;;;2.91;65.30;99331.64;1741687;82;21271;-61
2022/01/15 09:11:52;;;;;;;4.67;2.20;;;;;;;2.90;64.84;99346.17;1748428;81;21180;-61
2022/01/15 09:15:02;;;;;;;9.23;2.55;;;;;;;2.93;64.81;99333.17;1689201;85;21209;-62
2022/01/15 09:18:10;;;;;;;6.45;2.12;;;;;;;3.07;64.21;99345.33;1722265;81;21201;-60
2022/01/15 09:21:15;;;;;;;6.08;2.40;;;;;;;3.14;63.12;99369.37;1716061;83;21248;-62
2022/01/15 09:24:20;;;;;;;7.55;3.45;;;;;;;3.15;62.59;99354.01;1713609;82;21224;-61
2022/01/15 09:30:53;;;;;;;6.72;2.77;;;;;;;3.15;62.12;99349.46;1769059;81;21200;-62
2022/01/15 09:33:59;;;;;;;3.37;2.08;;;;;;;3.15;61.97;99342.70;1772489;81;21194;-62
2022/01/15 09:37:08;;;;;;;3.05;1.75;;;;;;;3.14;61.50;99349.09;1776047;80;21204;-61
2022/01/15 09:40:15;;;;;;;3.65;1.95;;;;;;;3.13;61.37;99339.30;1773652;80;21243;-61
2022/01/15 09:43:23;;;;;;;5.37;2.10;;;;;;;3.18;61.33;99343.73;1750221;80;21337;-61
2022/01/15 09:46:29;;;;;;;3.80;1.72;;;;;;;3.27;61.22;99350.91;1761106;80;21766;-60
2022/01/15 09:49:34;;;;;;;6.25;1.95;;;;;;;3.37;60.75;99364.36;1741896;82;21740;-61
2022/01/15 09:52:42;;;;;;;4.53;2.10;;;;;;;3.37;60.24;99337.31;1754372;81;21243;-60
2022/01/15 09:55:47;;;;;;;6.75;3.65;;;;;;;3.37;60.38;99329.20;1772349;81;21283;-61
2022/01/15 09:58:56;;;;;;;7.90;3.52;;;;;;;3.36;60.75;99340.54;1771935;81;21266;-60
2022/01/15 10:02:03;;;;;;;3.85;1.50;;;;;;;3.41;61.23;99346.30;1771753;81;21709;-61
2022/01/15 10:05:10;;;;;;;7.92;2.70;;;;;;;3.42;60.88;99361.55;1772251;81;21236;-62
2022/01/15 10:08:17;;;;;;;6.45;2.20;;;;;;;3.35;61.04;99384.80;1772592;81;21319;-60
2022/01/15 10:11:24;;;;;;;7.10;2.50;;;;;;;3.32;61.56;99356.71;1771478;81;21671;-61
2022/01/15 10:14:38;;;;;;;4.28;2.22;;;;;;;3.33;61.85;99367.04;1719247;82;21231;-62
2022/01/15 10:17:46;;;;;;;4.95;2.20;;;;;;;3.35;61.88;99371.77;1741960;82;21741;-60
2022/01/15 10:20:53;;;;;;;6.15;1.85;;;;;;;3.33;61.85;99366.52;1741977;82;21215;-61
2022/01/15 10:24:04;;;;;;;3.42;1.67;;;;;;;3.39;62.09;99348.83;1742238;82;21216;-61
2022/01/15 10:27:39;;;;;;;4.22;2.25;;;;;;;3.46;62.22;99353.45;1742379;81;21180;-61
2022/01/15 10:30:47;;;;;;;4.92;2.42;;;;;;;3.47;61.84;99364.64;1742145;82;21223;-62
2022/01/15 10:33:54;;;;;;;5.17;2.08;;;;;;;3.46;61.91;99362.06;1674888;84;21247;-62
2022/01/15 10:36:59;;;;;;;4.30;1.87;;;;;;;3.48;62.39;99389.32;1701528;82;21208;-61
2022/01/15 10:40:13;;;;;;;2.80;1.60;;;;;;;3.43;62.84;99367.30;1719593;83;21270;-61
2022/01/15 10:43:24;;;;;;;2.75;1.50;;;;;;;3.39;63.67;99383.98;1715137;83;21232;-61
2022/01/15 10:46:42;;;;;;;5.58;1.90;;;;;;;3.26;64.47;99377.63;1720783;83;21406;-61
2022/01/15 10:49:48;;;;;;;6.45;2.95;;;;;;;3.20;64.99;99371.48;1709767;83;21371;-61
2022/01/15 10:52:54;;;;;;;4.15;2.40;;;;;;;3.21;65.29;99377.23;1702750;83;21233;-61
2022/01/15 10:56:01;;;;;;;5.25;2.37;;;;;;;3.22;65.24;99380.27;1712509;83;21919;-61
2022/01/15 10:59:17;;;;;;;4.60;2.35;;;;;;;3.18;65.21;99384.30;1704685;83;21226;-61
2022/01/15 11:02:26;;;;;;;10.23;2.40;;;;;;;3.15;65.20;99391.37;1704834;83;21896;-61
2022/01/15 11:05:38;;;;;;;4.40;2.52;;;;;;;3.15;65.41;99395.42;1673144;85;21237;-61
2022/01/15 11:08:48;;;;;;;4.55;2.12;;;;;;;3.12;65.78;99382.70;1680202;84;21563;-61
2022/01/15 11:12:05;;;;;;;3.40;1.70;;;;;;;3.08;66.42;99397.88;1674238;85;21248;-62
2022/01/15 11:15:13;;;;;;;5.12;2.20;;;;;;;3.04;67.00;99396.47;1615871;88;21602;-61
2022/01/15 11:18:31;;;;;;;4.92;1.90;;;;;;;2.99;67.78;99393.89;1669990;85;21382;-62
2022/01/15 11:21:40;;;;;;;6.10;2.95;;;;;;;2.97;68.03;99397.23;1650756;86;21268;-61
2022/01/15 11:24:47;;;;;;;7.22;3.65;;;;;;;2.94;68.22;99398.90;1682512;85;21295;-60
2022/01/15 11:27:54;;;;;;;4.33;2.40;;;;;;;2.91;68.36;99420.83;1682063;85;21311;-61
2022/01/15 11:31:03;;;;;;;7.05;3.20;;;;;;;2.88;68.53;99401.72;1678247;85;21249;-62
2022/01/15 11:34:12;;;;;;;6.42;2.33;;;;;;;2.85;68.71;99405.22;1673387;85;21260;-61
2022/01/15 11:37:30;;;;;;;6.00;2.70;;;;;;;2.83;68.70;99413.97;1674054;85;21303;-63
2022/01/15 11:40:48;;;;;;;3.40;1.80;;;;;;;2.84;68.59;99433.23;1760397;81;21792;-62
2022/01/15 11:43:53;;;;;;;7.78;2.00;;;;;;;2.85;68.39;99416.03;1756965;81;21419;-62
2022/01/15 11:47:04;;;;;;;5.20;2.00;;;;;;;2.88;68.18;99422.48;1776910;80;21390;-62
2022/01/15 11:50:27;;;;;;;6.67;2.90;;;;;;;2.92;67.86;99418.45;1779735;80;21212;-62
2022/01/15 11:53:58;;;;;;;4.25;2.17;;;;;;;2.94;67.52;99432.69;1781275;80;21246;-62
2022/01/15 11:57:04;;;;;;;3.75;2.10;;;;;;;2.93;67.34;99471.01;1781555;80;21716;-61
2022/01/15 12:00:14;;;;;;;4.28;1.75;;;;;;;2.93;67.33;99434.52;1745729;80;21891;-62
2022/01/15 12:03:19;;;;;;;4.45;1.80;;;;;;;2.98;67.25;99447.61;1748009;81;21757;-62
2022/01/15 12:06:24;;;;;;;3.75;1.85;;;;;;;3.00;67.42;99442.39;1763152;81;21331;-61
2022/01/15 12:09:59;;;;;;;4.80;2.10;;;;;;;3.02;67.52;99446.30;1718294;82;21998;-63
2022/01/15 12:13:04;;;;;;;3.27;1.90;;;;;;;3.02;67.59;99443.59;1721493;83;21734;-62
2022/01/15 12:16:36;;;;;;;5.17;2.22;;;;;;;3.00;67.71;99460.45;1775554;80;21740;-61
2022/01/15 12:19:46;;;;;;;4.08;1.98;;;;;;;2.97;67.71;99468.37;1762595;81;21339;-62
2022/01/15 12:22:56;;;;;;;5.70;2.15;;;;;;;2.95;67.98;99451.94;1761698;80;21181;-61
2022/01/15 12:26:03;;;;;;;5.30;2.30;;;;;;;2.96;68.18;99457.72;1747792;81;21304;-61
2022/01/15 12:29:08;;;;;;;4.87;2.65;;;;;;;2.99;68.03;99487.14;1741894;81;21236;-62
2022/01/15 12:32:15;;;;;;;5.70;2.70;;;;;;;2.95;67.65;99460.05;1742459;82;21247;-62
2022/01/15 12:35:30;;;;;;;4.75;2.37;;;;;;;2.93;67.73;99479.64;1742551;82;21244;-61
2022/01/15 12:38:39;;;;;;;3.75;1.87;;;;;;;2.87;67.51;99457.27;1752272;81;21208;-62
2022/01/15 12:41:45;;;;;;;3.67;1.80;;;;;;;2.81;67.58;99468.17;1673223;84;21801;-64
2022/01/15 12:44:56;;;;;;;4.60;2.02;;;;;;;2.79;67.95;99520.67;1672886;85;21244;-63
2022/01/15 12:48:01;;;;;;;2.62;1.80;;;;;;;2.74;68.37;99498.64;1673154;85;21722;-62
2022/01/15 12:51:18;;;;;;;4.00;2.00;;;;;;;2.67;68.84;99512.38;1672992;85;21208;-61
2022/01/15 12:54:26;;;;;;;5.25;2.58;;;;;;;2.64;69.14;99504.56;1674195;84;21880;-63
2022/01/15 12:57:53;;;;;;;4.28;2.22;;;;;;;2.61;69.18;99508.92;1673034;85;21249;-62
2022/01/15 13:01:01;;;;;;;2.25;1.50;;;;;;;2.60;69.16;99507.23;1673561;85;21224;-62
2022/01/15 13:04:11;;;;;;;4.40;2.15;;;;;;;2.63;68.87;99515.86;1672848;85;21797;-62
2022/01/15 13:07:17;;;;;;;4.08;2.08;;;;;;;2.69;68.55;99519.84;1660340;85;21725;-62
2022/01/15 13:14:07;;;;;;;3.42;1.82;;;;;;;2.79;68.26;99524.20;1670786;83;21768;-62
2022/01/15 13:17:10;;;;;;;2.75;1.70;;;;;;;2.83;68.12;99519.36;1674411;85;21305;-61
2022/01/15 13:20:36;;;;;;;3.62;1.60;;;;;;;2.82;68.04;99525.25;1670317;85;21370;-62
2022/01/15 13:23:57;;;;;;;5.22;2.12;;;;;;;2.75;68.11;99524.16;1676021;85;21221;-61
2022/01/15 13:27:04;;;;;;;3.30;1.62;;;;;;;2.70;68.25;99525.58;1682941;85;21216;-61
2022/01/15 13:30:13;;;;;;;2.98;1.90;;;;;;;2.65;68.50;99540.03;1678876;84;21868;-62
2022/01/15 13:33:21;;;;;;;3.22;1.50;;;;;;;2.63;68.68;99556.38;1692709;83;21240;-63
2022/01/15 13:36:27;;;;;;;4.75;2.45;;;;;;;2.63;68.99;99566.36;1702033;84;21332;-62
2022/01/15 13:39:32;;;;;;;4.95;2.85;;;;;;;2.64;69.20;99574.32;1695508;84;21378;-61
2022/01/15 13:42:38;;;;;;;5.62;2.70;;;;;;;2.61;69.21;99608.38;1672138;82;21284;-64
2022/01/15 13:45:48;;;;;;;3.20;2.10;;;;;;;2.57;69.42;99596.66;1637357;86;21202;-62
2022/01/15 13:48:58;;;;;;;3.90;1.90;;;;;;;2.52;70.10;99615.14;1678881;84;21759;-62
2022/01/15 13:55:36;;;;;;;4.12;2.40;;;;;;;2.43;71.61;99606.53;1699880;83;21209;-61
2022/01/15 13:58:40;;;;;;;4.40;2.20;;;;;;;2.43;72.26;99609.23;1700316;83;21959;-61
2022/01/15 14:01:47;;;;;;;3.08;1.50;;;;;;;2.43;72.57;99603.83;1699420;84;21181;-63
2022/01/15 14:04:53;;;;;;;5.87;2.20;;;;;;;2.42;72.72;99619.69;1699621;83;21386;-62
2022/01/15 14:08:02;;;;;;;6.60;2.30;;;;;;;2.42;72.51;99608.89;1687518;84;21785;-61
2022/01/15 14:11:18;;;;;;;3.00;1.50;;;;;;;2.44;72.40;99623.11;1679635;84;21207;-61
2022/01/15 14:14:26;;;;;;;3.33;1.80;;;;;;;2.47;72.30;99626.39;1766791;81;21350;-62
2022/01/15 14:17:32;;;;;;;4.10;2.20;;;;;;;2.44;72.07;99634.74;1767574;80;21174;-62
2022/01/15 14:24:08;;;;;;;7.47;4.20;;;;;;;2.33;72.67;99643.52;1737287;81;21200;-62
2022/01/15 14:27:13;;;;;;;6.30;3.10;;;;;;;2.32;72.75;99668.78;1736879;82;21768;-61
2022/01/15 14:30:19;;;;;;;6.58;3.50;;;;;;;2.31;73.46;99687.34;1725089;81;21248;-61
2022/01/15 14:33:26;;;;;;;3.25;1.92;;;;;;;2.26;73.53;99672.05;1673403;85;22102;-61
2022/01/15 14:36:32;;;;;;;2.95;1.70;;;;;;;2.20;73.69;99671.28;1746747;81;21217;-63
2022/01/15 14:39:41;;;;;;;4.87;2.22;;;;;;;2.14;74.07;99693.44;1764751;81;21352;-64
2022/01/15 14:42:50;;;;;;;3.75;2.15;;;;;;;2.09;74.45;99677.67;1727624;80;21735;-62
2022/01/15 14:45:56;;;;;;;5.67;2.40;;;;;;;2.11;74.68;99689.67;1748975;81;21760;-62
2022/01/15 14:49:04;;;;;;;4.40;2.10;;;;;;;2.13;74.85;99688.53;1737511;82;21381;-63
2022/01/15 14:52:12;;;;;;;8.23;3.22;;;;;;;2.19;74.89;99695.23;1745688;81;21866;-62
2022/01/15 14:55:19;;;;;;;5.40;2.40;;;;;;;2.21;74.89;99691.87;1723370;82;21378;-62
2022/01/15 14:58:29;;;;;;;3.50;1.90;;;;;;;2.22;74.77;99723.29;1722811;82;21358;-61
2022/01/15 15:01:36;;;;;;;3.25;2.00;;;;;;;2.23;74.59;99699.34;1727302;82;21729;-61
2022/01/15 15:04:44;;;;;;;4.47;2.10;;;;;;;2.27;74.35;99712.91;1737114;81;21281;-62
2022/01/15 15:07:51;;;;;;;3.80;2.10;;;;;;;2.30;73.94;99721.58;1736187;82;21692;-61
2022/01/15 15:10:57;;;;;;;4.05;1.77;;;;;;;2.32;73.65;99711.50;1736542;81;21259;-63
2022/01/15 15:14:02;;;;;;;5.12;2.00;;;;;;;2.35;73.43;99723.86;1734306;81;21413;-63
2022/01/15 15:17:08;;;;;;;3.70;1.77;;;;;;;2.39;73.46;99744.20;1744027;80;21288;-62
2022/01/15 15:20:16;;;;;;;7.35;3.70;;;;;;;2.41;73.76;99731.42;1735849;81;21211;-62
2022/01/15 15:23:28;;;;;;;2.47;1.50;;;;;;;2.40;74.12;99748.60;1725688;82;21568;-62
2022/01/15 15:26:33;;;;;;;2.12;1.27;;;;;;;2.35;74.18;99749.52;1741682;82;21915;-61
2022/01/15 15:29:39;;;;;;;3.90;2.20;;;;;;;2.37;74.26;99743.00;1731962;80;21594;-62
2022/01/15 15:32:49;;;;;;;2.87;1.50;;;;;;;2.42;74.68;99753.38;1758193;81;21212;-62
2022/01/15 15:35:55;;;;;;;5.28;2.50;;;;;;;2.42;76.08;99757.42;1770675;80;21179;-64